createdAt,value
2022-07-30T00:03:41.229Z,7.4
2022-07-30T00:09:22.851Z,7.1
2022-07-30T00:14:56.412Z,7.1
2022-07-30T00:20:29.949Z,6.7
2022-07-30T00:26:40.598Z,6.8
2022-07-30T00:32:14.124Z,6.7
2022-07-30T00:37:47.696Z,6.7
2022-07-30T00:43:13.069Z,6.5
2022-07-30T00:48:46.696Z,6.5
2022-07-30T00:54:20.177Z,6.4
2022-07-30T00:59:53.727Z,6.5
2022-07-30T01:05:27.275Z,6.4
2022-07-30T01:11:37.898Z,6.2
2022-07-30T01:17:52.768Z,6
2022-07-30T01:23:22.075Z,5.9
2022-07-30T01:29:32.724Z,5.6
2022-07-30T01:35:06.274Z,6.7
2022-07-30T01:41:08.690Z,5.4
2022-07-30T01:46:42.252Z,5.3
2022-07-30T01:52:15.830Z,5.1
2022-07-30T01:57:49.348Z,4.9
2022-07-30T02:03:22.997Z,4.8
2022-07-30T02:08:56.528Z,4.8
2022-07-30T02:14:30.058Z,4.8
2022-07-30T02:20:09.260Z,4.8
2022-07-30T02:25:37.174Z,4.7
2022-07-30T02:31:17.013Z,4.6
2022-07-30T02:36:44.315Z,4.6
2022-07-30T02:42:17.870Z,4.4
2022-07-30T02:47:51.425Z,4.3
2022-07-30T02:53:24.978Z,4.2
2022-07-30T02:58:58.521Z,4.2
2022-07-30T03:04:32.095Z,4
2022-07-30T03:10:05.667Z,4
2022-07-30T03:15:40.141Z,3.9
2022-07-30T03:21:12.753Z,4
2022-07-30T03:26:46.308Z,3.8
2022-07-30T03:32:19.876Z,3.8
2022-07-30T03:37:53.436Z,3.8
2022-07-30T03:43:33.578Z,3.9
2022-07-30T03:48:52.437Z,4
2022-07-30T03:54:25.955Z,3.9
2022-07-30T03:59:59.479Z,3.8
2022-07-30T04:05:37.703Z,3.7
2022-07-30T04:11:06.592Z,3.6
2022-07-30T04:16:42.080Z,3.6
2022-07-30T04:22:13.721Z,3.5
2022-07-30T04:28:02.790Z,3.5
2022-07-30T04:33:20.847Z,3.3
2022-07-30T04:38:54.401Z,3.4
2022-07-30T04:44:19.773Z,3.4
2022-07-30T04:49:53.317Z,3.3
2022-07-30T04:55:26.872Z,3.5
2022-07-30T05:01:00.441Z,3.5
2022-07-30T05:06:33.998Z,3.5
2022-07-30T05:11:38.679Z,3.7
2022-07-30T05:17:12.248Z,3.8
2022-07-30T05:22:50.900Z,4.1
2022-07-30T05:28:19.414Z,4.4
2022-07-30T05:33:52.924Z,5.4
2022-07-30T05:39:26.500Z,5.3
2022-07-30T05:44:51.840Z,5
2022-07-30T05:50:25.417Z,4.4
2022-07-30T05:55:58.966Z,5.3
2022-07-30T06:01:32.557Z,5.8
2022-07-30T06:07:06.095Z,7.2
2022-07-30T06:12:39.603Z,8.1
2022-07-30T06:18:13.225Z,8.7
2022-07-30T06:23:46.762Z,9.5
2022-07-30T06:29:20.297Z,10.4
2022-07-30T06:35:01.210Z,11.2
2022-07-30T06:40:27.555Z,12
2022-07-30T06:45:52.853Z,12.1
2022-07-30T06:51:26.370Z,12.5
2022-07-30T06:57:00.307Z,13.4
2022-07-30T07:03:11.950Z,13.3
2022-07-30T07:08:48.202Z,13.2
2022-07-30T07:14:58.823Z,13.5
2022-07-30T07:20:32.373Z,14.3
2022-07-30T07:26:05.910Z,14.5
2022-07-30T07:32:06.472Z,15.2
2022-07-30T07:37:13.048Z,14.9
2022-07-30T07:42:17.728Z,15.4
2022-07-30T07:47:43.129Z,15.6
2022-07-30T07:53:16.687Z,15.6
2022-07-30T07:58:53.883Z,16.5
2022-07-30T08:04:23.785Z,17
2022-07-30T08:09:57.342Z,17
2022-07-30T08:15:30.915Z,17.1
2022-07-30T08:21:04.447Z,17.6
2022-07-30T08:26:37.990Z,16.8
2022-07-30T08:32:11.582Z,17.9
2022-07-30T08:37:45.145Z,17.6
2022-07-30T08:43:18.689Z,17.9
2022-07-30T08:48:44.118Z,18.6
2022-07-30T08:54:17.616Z,19
2022-07-30T09:00:00.157Z,19.4
2022-07-30T09:05:24.737Z,19.9
2022-07-30T09:10:58.317Z,19.8
2022-07-30T09:16:31.861Z,19.7
2022-07-30T09:22:05.428Z,19.8
2022-07-30T09:27:38.971Z,20
2022-07-30T09:33:12.549Z,19.9
2022-07-30T09:38:46.113Z,20.2
2022-07-30T09:44:11.481Z,19.6
2022-07-30T09:49:47.246Z,19.7
2022-07-30T09:55:18.612Z,20.5
2022-07-30T10:00:52.230Z,20.9
2022-07-30T10:06:25.730Z,19.6
2022-07-30T10:11:31.165Z,20.2
2022-07-30T10:17:03.963Z,20.7
2022-07-30T10:22:37.534Z,20.9
2022-07-30T10:28:11.128Z,21.1
2022-07-30T10:33:44.659Z,19.5
2022-07-30T10:39:18.193Z,19.5
2022-07-30T10:44:51.823Z,19.6
2022-07-30T10:50:17.178Z,19
2022-07-30T10:55:50.688Z,19.2
2022-07-30T11:01:24.275Z,18.2
2022-07-30T11:06:57.810Z,18.5
2022-07-30T11:12:31.375Z,19.3
2022-07-30T11:18:04.940Z,19.5
2022-07-30T11:23:39.195Z,18.2
2022-07-30T11:29:12.047Z,18.2
2022-07-30T11:34:45.620Z,18.9
2022-07-30T11:40:25.951Z,17.9
2022-07-30T11:46:28.922Z,18.1
2022-07-30T11:51:55.148Z,18.7
2022-07-30T11:57:28.701Z,18.1
2022-07-30T12:03:04.161Z,18.3
2022-07-30T12:08:36.465Z,17.5
2022-07-30T12:14:09.371Z,16.8
2022-07-30T12:19:47.448Z,18.2
2022-07-30T12:25:16.514Z,17.8
2022-07-30T12:30:50.050Z,17.8
2022-07-30T12:36:23.890Z,18
2022-07-30T12:41:28.315Z,17.5
2022-07-30T12:46:57.749Z,17.1
2022-07-30T12:52:31.688Z,17.5
2022-07-30T12:58:08.295Z,16.8
2022-07-30T13:03:38.437Z,17.5
2022-07-30T13:09:12.005Z,17.2
2022-07-30T13:14:45.576Z,17
2022-07-30T13:20:19.309Z,17.4
2022-07-30T13:25:52.712Z,17
2022-07-30T13:31:26.246Z,17.1
2022-07-30T13:37:00.374Z,17.4
2022-07-30T13:43:10.418Z,17.2
2022-07-30T13:48:35.803Z,16.8
2022-07-30T13:54:09.356Z,17
2022-07-30T13:59:42.937Z,16.8
2022-07-30T14:05:16.474Z,16.4
2022-07-30T14:10:50.028Z,16.3
2022-07-30T14:16:44.109Z,16.5
2022-07-30T14:21:57.135Z,15.9
2022-07-30T14:27:30.709Z,16.1
2022-07-30T14:33:04.868Z,16.4
2022-07-30T14:38:37.833Z,16.9
2022-07-30T14:44:11.376Z,16.8
2022-07-30T14:49:44.954Z,16.9
2022-07-30T14:55:18.546Z,16.5
2022-07-30T15:00:48.643Z,16.5
2022-07-30T15:06:17.463Z,16.4
2022-07-30T15:11:22.159Z,16.7
2022-07-30T15:16:59.360Z,16.7
2022-07-30T15:22:29.253Z,16.9
2022-07-30T15:28:02.789Z,16.4
2022-07-30T15:33:37.141Z,16.1
2022-07-30T15:39:09.935Z,16.1
2022-07-30T15:44:48.701Z,16.5
2022-07-30T15:50:17.110Z,16.1
2022-07-30T15:55:50.590Z,16.7
2022-07-30T16:01:16.034Z,16.3
2022-07-30T16:06:49.520Z,17
2022-07-30T16:12:23.124Z,16
2022-07-30T16:17:56.647Z,16.1
2022-07-30T16:23:36.217Z,16.1
2022-07-30T16:29:03.787Z,16.8
2022-07-30T16:34:37.332Z,16.1
2022-07-30T16:40:10.869Z,16.4
2022-07-30T16:45:44.454Z,16.6
2022-07-30T16:51:17.990Z,16.6
2022-07-30T16:56:51.564Z,16.5
2022-07-30T17:02:16.920Z,15.6
2022-07-30T17:07:50.505Z,15.6
2022-07-30T17:13:24.061Z,15.5
2022-07-30T17:18:57.640Z,15.3
2022-07-30T17:24:31.174Z,15.9
2022-07-30T17:30:04.739Z,14.8
2022-07-30T17:35:38.282Z,14.7
2022-07-30T17:40:42.986Z,15.1
2022-07-30T17:46:16.569Z,15.3
2022-07-30T17:51:50.094Z,15.1
2022-07-30T17:57:23.687Z,15.1
2022-07-30T18:03:26.077Z,5.4
2022-07-30T18:08:59.639Z,15
2022-07-30T18:14:33.192Z,15.4
2022-07-30T18:20:07.002Z,15.1
2022-07-30T18:25:51.321Z,14.6
2022-07-30T18:31:13.886Z,14.3
2022-07-30T18:36:47.437Z,13.8
2022-07-30T18:42:21.026Z,13.7
2022-07-30T18:47:54.570Z,13.7
2022-07-30T18:53:28.133Z,13.6
2022-07-30T18:59:01.678Z,13.4
2022-07-30T19:04:27.062Z,13.4
2022-07-30T19:10:00.638Z,13.3
2022-07-30T19:15:34.182Z,13.4
2022-07-30T19:21:44.801Z,13.2
2022-07-30T19:27:18.349Z,13.1
2022-07-30T19:32:51.891Z,12.9
2022-07-30T19:38:25.498Z,12.8
2022-07-30T19:43:59.027Z,12.7
2022-07-30T19:49:32.645Z,12.5
2022-07-30T19:55:17.088Z,12.4
2022-07-30T20:00:31.530Z,12.2
2022-07-30T20:06:05.101Z,12.4
2022-07-30T20:11:09.753Z,12.2
2022-07-30T20:16:43.340Z,12.2
2022-07-30T20:22:17.112Z,12.2
2022-07-30T20:27:50.425Z,12.2
2022-07-30T20:33:36.125Z,12.1
2022-07-30T20:38:57.570Z,12.6
2022-07-30T20:44:31.109Z,12.2
2022-07-30T20:50:04.696Z,11.8
2022-07-30T20:56:15.303Z,12.2
2022-07-30T21:01:40.682Z,12.3
2022-07-30T21:07:14.209Z,12.1
2022-07-30T21:12:50.996Z,12.2
2022-07-30T21:18:21.368Z,12.3
2022-07-30T21:23:54.901Z,12.3
2022-07-30T21:29:28.477Z,12.3
2022-07-30T21:35:08.338Z,11.9
2022-07-30T21:40:35.555Z,11.8
2022-07-30T21:46:10.536Z,11.5
2022-07-30T21:51:42.703Z,11.6
2022-07-30T21:57:16.264Z,11.6
2022-07-30T22:02:53.079Z,11.4
2022-07-30T22:08:15.187Z,11.3
2022-07-30T22:13:51.406Z,11.2
2022-07-30T22:19:22.276Z,11
2022-07-30T22:24:55.868Z,11.2
2022-07-30T22:30:29.408Z,11
2022-07-30T22:36:02.959Z,10.8
2022-07-30T22:41:07.672Z,10.7
2022-07-30T22:46:41.227Z,10.7
2022-07-30T22:52:19.480Z,10.7
2022-07-30T22:57:48.333Z,10.4
2022-07-30T23:03:13.712Z,10.3
2022-07-30T23:08:47.262Z,10.4
2022-07-30T23:14:20.898Z,11.6
2022-07-30T23:19:54.375Z,10.3
2022-07-30T23:25:34.614Z,10.3
2022-07-30T23:31:01.507Z,10.4
2022-07-30T23:36:35.114Z,10.4
2022-07-30T23:42:08.627Z,10.4
2022-07-30T23:48:02.050Z,10.2
2022-07-30T23:53:15.747Z,10.2
2022-07-30T23:58:49.303Z,10.3
